sensor_id;sensor_type;location;lat;lon;timestamp;P1;durP1;ratioP1;P2;durP2;ratioP2
10979;SDS011;5543;51.734;8.744;2023-02-19T00:01:48;4.65;;;2.78;;
10979;SDS011;5543;51.734;8.744;2023-02-19T00:04:20;4.95;;;2.72;;
10979;SDS011;5543;51.734;8.744;2023-02-19T00:06:49;6.10;;;3.25;;
10979;SDS011;5543;51.734;8.744;2023-02-19T00:09:17;5.65;;;2.70;;
10979;SDS011;5543;51.734;8.744;2023-02-19T00:11:46;5.43;;;2.95;;
10979;SDS011;5543;51.734;8.744;2023-02-19T00:14:16;6.35;;;3.80;;
10979;SDS011;5543;51.734;8.744;2023-02-19T00:16:45;6.63;;;3.60;;
10979;SDS011;5543;51.734;8.744;2023-02-19T00:19:15;7.22;;;3.47;;
10979;SDS011;5543;51.734;8.744;2023-02-19T00:21:45;5.85;;;2.90;;
10979;SDS011;5543;51.734;8.744;2023-02-19T00:24:13;7.82;;;3.63;;
10979;SDS011;5543;51.734;8.744;2023-02-19T00:26:42;6.38;;;2.78;;
10979;SDS011;5543;51.734;8.744;2023-02-19T00:29:11;8.13;;;3.17;;
10979;SDS011;5543;51.734;8.744;2023-02-19T00:31:41;5.53;;;2.95;;
10979;SDS011;5543;51.734;8.744;2023-02-19T00:34:10;7.70;;;3.65;;
10979;SDS011;5543;51.734;8.744;2023-02-19T00:36:40;5.25;;;2.65;;
10979;SDS011;5543;51.734;8.744;2023-02-19T00:39:10;5.72;;;2.85;;
10979;SDS011;5543;51.734;8.744;2023-02-19T00:41:41;5.93;;;3.67;;
10979;SDS011;5543;51.734;8.744;2023-02-19T00:44:10;7.55;;;2.67;;
10979;SDS011;5543;51.734;8.744;2023-02-19T00:46:39;4.22;;;2.63;;
10979;SDS011;5543;51.734;8.744;2023-02-19T00:49:10;7.00;;;3.03;;
10979;SDS011;5543;51.734;8.744;2023-02-19T00:51:43;7.00;;;3.15;;
10979;SDS011;5543;51.734;8.744;2023-02-19T00:54:11;7.28;;;3.60;;
10979;SDS011;5543;51.734;8.744;2023-02-19T00:56:40;6.75;;;3.38;;
10979;SDS011;5543;51.734;8.744;2023-02-19T00:59:08;6.32;;;3.03;;
10979;SDS011;5543;51.734;8.744;2023-02-19T01:01:37;10.65;;;3.35;;
10979;SDS011;5543;51.734;8.744;2023-02-19T01:04:05;5.35;;;3.22;;
10979;SDS011;5543;51.734;8.744;2023-02-19T01:06:33;5.50;;;2.42;;
10979;SDS011;5543;51.734;8.744;2023-02-19T01:09:03;4.78;;;3.20;;
10979;SDS011;5543;51.734;8.744;2023-02-19T01:11:32;5.20;;;2.50;;
10979;SDS011;5543;51.734;8.744;2023-02-19T01:14:00;8.18;;;3.17;;
10979;SDS011;5543;51.734;8.744;2023-02-19T01:16:30;6.03;;;2.78;;
10979;SDS011;5543;51.734;8.744;2023-02-19T01:18:58;6.85;;;2.83;;
10979;SDS011;5543;51.734;8.744;2023-02-19T01:21:27;5.75;;;2.88;;
10979;SDS011;5543;51.734;8.744;2023-02-19T01:23:57;6.95;;;3.47;;
10979;SDS011;5543;51.734;8.744;2023-02-19T01:26:28;6.80;;;3.83;;
10979;SDS011;5543;51.734;8.744;2023-02-19T01:28:58;8.23;;;3.75;;
10979;SDS011;5543;51.734;8.744;2023-02-19T01:31:27;7.22;;;3.65;;
10979;SDS011;5543;51.734;8.744;2023-02-19T01:33:56;6.32;;;3.05;;
10979;SDS011;5543;51.734;8.744;2023-02-19T01:36:26;6.95;;;2.70;;
10979;SDS011;5543;51.734;8.744;2023-02-19T01:38:55;9.38;;;3.60;;
10979;SDS011;5543;51.734;8.744;2023-02-19T01:41:27;6.88;;;2.58;;
10979;SDS011;5543;51.734;8.744;2023-02-19T01:43:56;6.13;;;3.10;;
10979;SDS011;5543;51.734;8.744;2023-02-19T01:46:27;6.25;;;3.83;;
10979;SDS011;5543;51.734;8.744;2023-02-19T01:48:58;8.07;;;4.32;;
10979;SDS011;5543;51.734;8.744;2023-02-19T01:51:31;8.23;;;3.95;;
10979;SDS011;5543;51.734;8.744;2023-02-19T01:54:00;8.88;;;4.05;;
10979;SDS011;5543;51.734;8.744;2023-02-19T01:56:33;12.35;;;4.97;;
10979;SDS011;5543;51.734;8.744;2023-02-19T01:59:04;10.38;;;4.65;;
10979;SDS011;5543;51.734;8.744;2023-02-19T02:01:33;9.93;;;4.43;;
10979;SDS011;5543;51.734;8.744;2023-02-19T02:04:04;13.57;;;5.68;;
10979;SDS011;5543;51.734;8.744;2023-02-19T02:06:34;11.85;;;4.63;;
10979;SDS011;5543;51.734;8.744;2023-02-19T02:09:08;10.20;;;4.32;;
10979;SDS011;5543;51.734;8.744;2023-02-19T02:11:55;10.82;;;5.30;;
10979;SDS011;5543;51.734;8.744;2023-02-19T02:14:24;13.77;;;5.90;;
10979;SDS011;5543;51.734;8.744;2023-02-19T02:16:58;10.65;;;5.10;;
10979;SDS011;5543;51.734;8.744;2023-02-19T02:19:43;10.32;;;4.75;;
10979;SDS011;5543;51.734;8.744;2023-02-19T02:22:23;13.98;;;4.50;;
10979;SDS011;5543;51.734;8.744;2023-02-19T02:28:13;11.23;;;5.53;;
10979;SDS011;5543;51.734;8.744;2023-02-19T02:30:56;11.07;;;5.35;;
10979;SDS011;5543;51.734;8.744;2023-02-19T02:33:30;10.82;;;5.15;;
10979;SDS011;5543;51.734;8.744;2023-02-19T02:36:05;11.20;;;5.45;;
10979;SDS011;5543;51.734;8.744;2023-02-19T02:38:37;10.88;;;4.88;;
10979;SDS011;5543;51.734;8.744;2023-02-19T02:41:11;12.88;;;5.47;;
10979;SDS011;5543;51.734;8.744;2023-02-19T02:43:40;19.02;;;5.43;;
10979;SDS011;5543;51.734;8.744;2023-02-19T02:46:11;14.32;;;5.18;;
10979;SDS011;5543;51.734;8.744;2023-02-19T02:48:42;11.15;;;4.72;;
10979;SDS011;5543;51.734;8.744;2023-02-19T02:51:19;11.77;;;4.70;;
10979;SDS011;5543;51.734;8.744;2023-02-19T02:53:50;10.43;;;5.20;;
10979;SDS011;5543;51.734;8.744;2023-02-19T02:56:41;14.98;;;6.28;;
10979;SDS011;5543;51.734;8.744;2023-02-19T02:59:11;12.82;;;6.10;;
10979;SDS011;5543;51.734;8.744;2023-02-19T03:01:44;16.13;;;5.63;;
10979;SDS011;5543;51.734;8.744;2023-02-19T03:04:34;10.40;;;5.88;;
10979;SDS011;5543;51.734;8.744;2023-02-19T03:07:28;13.15;;;6.03;;
10979;SDS011;5543;51.734;8.744;2023-02-19T03:10:02;15.80;;;5.25;;
10979;SDS011;5543;51.734;8.744;2023-02-19T03:12:34;13.23;;;5.72;;
10979;SDS011;5543;51.734;8.744;2023-02-19T03:15:24;10.30;;;4.80;;
10979;SDS011;5543;51.734;8.744;2023-02-19T03:18:15;12.32;;;5.22;;
10979;SDS011;5543;51.734;8.744;2023-02-19T03:21:02;8.98;;;4.60;;
10979;SDS011;5543;51.734;8.744;2023-02-19T03:23:32;8.63;;;4.38;;
10979;SDS011;5543;51.734;8.744;2023-02-19T03:26:20;10.38;;;5.05;;
10979;SDS011;5543;51.734;8.744;2023-02-19T03:28:49;6.95;;;4.18;;
10979;SDS011;5543;51.734;8.744;2023-02-19T03:31:37;10.93;;;4.85;;
10979;SDS011;5543;51.734;8.744;2023-02-19T03:34:10;11.85;;;4.03;;
10979;SDS011;5543;51.734;8.744;2023-02-19T03:36:42;9.45;;;3.67;;
10979;SDS011;5543;51.734;8.744;2023-02-19T03:39:13;9.23;;;2.67;;
10979;SDS011;5543;51.734;8.744;2023-02-19T03:41:45;9.85;;;4.03;;
10979;SDS011;5543;51.734;8.744;2023-02-19T03:44:22;6.30;;;2.72;;
10979;SDS011;5543;51.734;8.744;2023-02-19T03:46:55;5.50;;;3.15;;
10979;SDS011;5543;51.734;8.744;2023-02-19T03:49:31;8.85;;;3.40;;
10979;SDS011;5543;51.734;8.744;2023-02-19T03:52:08;6.93;;;2.92;;
10979;SDS011;5543;51.734;8.744;2023-02-19T03:54:42;7.63;;;4.18;;
10979;SDS011;5543;51.734;8.744;2023-02-19T03:57:17;5.53;;;3.17;;
10979;SDS011;5543;51.734;8.744;2023-02-19T03:59:49;8.15;;;3.08;;
10979;SDS011;5543;51.734;8.744;2023-02-19T04:02:23;6.95;;;3.03;;
10979;SDS011;5543;51.734;8.744;2023-02-19T04:04:58;4.43;;;2.72;;
10979;SDS011;5543;51.734;8.744;2023-02-19T04:07:34;5.22;;;2.58;;
10979;SDS011;5543;51.734;8.744;2023-02-19T04:10:07;6.22;;;4.22;;
10979;SDS011;5543;51.734;8.744;2023-02-19T04:12:36;5.95;;;3.20;;
10979;SDS011;5543;51.734;8.744;2023-02-19T04:15:07;4.32;;;2.22;;
10979;SDS011;5543;51.734;8.744;2023-02-19T04:17:40;4.75;;;2.13;;
10979;SDS011;5543;51.734;8.744;2023-02-19T04:20:15;3.80;;;2.17;;
10979;SDS011;5543;51.734;8.744;2023-02-19T04:22:46;4.13;;;2.45;;
10979;SDS011;5543;51.734;8.744;2023-02-19T04:25:14;3.55;;;2.40;;
10979;SDS011;5543;51.734;8.744;2023-02-19T04:27:43;2.38;;;1.40;;
10979;SDS011;5543;51.734;8.744;2023-02-19T04:30:12;2.67;;;1.52;;
10979;SDS011;5543;51.734;8.744;2023-02-19T04:32:41;2.55;;;1.25;;
10979;SDS011;5543;51.734;8.744;2023-02-19T04:35:09;1.55;;;1.17;;
10979;SDS011;5543;51.734;8.744;2023-02-19T04:37:38;1.02;;;0.80;;
10979;SDS011;5543;51.734;8.744;2023-02-19T04:40:07;4.15;;;1.42;;
10979;SDS011;5543;51.734;8.744;2023-02-19T04:42:36;2.22;;;1.33;;
10979;SDS011;5543;51.734;8.744;2023-02-19T04:45:04;4.25;;;1.55;;
10979;SDS011;5543;51.734;8.744;2023-02-19T04:47:33;2.28;;;1.73;;
10979;SDS011;5543;51.734;8.744;2023-02-19T04:50:01;2.85;;;1.63;;
10979;SDS011;5543;51.734;8.744;2023-02-19T04:52:29;2.78;;;1.30;;
10979;SDS011;5543;51.734;8.744;2023-02-19T04:54:59;2.65;;;1.38;;
10979;SDS011;5543;51.734;8.744;2023-02-19T04:57:28;1.75;;;1.45;;
10979;SDS011;5543;51.734;8.744;2023-02-19T04:59:56;7.97;;;1.88;;
10979;SDS011;5543;51.734;8.744;2023-02-19T05:02:24;7.00;;;1.83;;
10979;SDS011;5543;51.734;8.744;2023-02-19T05:04:52;4.68;;;2.30;;
10979;SDS011;5543;51.734;8.744;2023-02-19T05:07:20;3.90;;;1.95;;
10979;SDS011;5543;51.734;8.744;2023-02-19T05:09:48;4.93;;;2.67;;
10979;SDS011;5543;51.734;8.744;2023-02-19T05:12:18;4.45;;;2.15;;
10979;SDS011;5543;51.734;8.744;2023-02-19T05:14:47;5.10;;;2.40;;
10979;SDS011;5543;51.734;8.744;2023-02-19T05:17:16;7.63;;;3.10;;
10979;SDS011;5543;51.734;8.744;2023-02-19T05:19:44;5.45;;;3.38;;
10979;SDS011;5543;51.734;8.744;2023-02-19T05:22:12;5.57;;;2.00;;
10979;SDS011;5543;51.734;8.744;2023-02-19T05:24:40;3.08;;;1.75;;
10979;SDS011;5543;51.734;8.744;2023-02-19T05:27:08;5.10;;;2.47;;
10979;SDS011;5543;51.734;8.744;2023-02-19T05:29:37;4.90;;;2.70;;
10979;SDS011;5543;51.734;8.744;2023-02-19T05:32:06;4.35;;;2.58;;
10979;SDS011;5543;51.734;8.744;2023-02-19T05:34:34;2.97;;;2.08;;
10979;SDS011;5543;51.734;8.744;2023-02-19T05:37:02;6.32;;;2.17;;
10979;SDS011;5543;51.734;8.744;2023-02-19T05:39:30;3.08;;;1.77;;
10979;SDS011;5543;51.734;8.744;2023-02-19T05:41:58;2.40;;;1.65;;
10979;SDS011;5543;51.734;8.744;2023-02-19T05:44:26;3.65;;;2.00;;
10979;SDS011;5543;51.734;8.744;2023-02-19T05:46:56;3.55;;;2.05;;
10979;SDS011;5543;51.734;8.744;2023-02-19T05:49:24;4.15;;;2.15;;
10979;SDS011;5543;51.734;8.744;2023-02-19T05:51:53;4.10;;;2.25;;
10979;SDS011;5543;51.734;8.744;2023-02-19T05:54:21;3.08;;;1.92;;
10979;SDS011;5543;51.734;8.744;2023-02-19T05:56:49;3.28;;;2.10;;
10979;SDS011;5543;51.734;8.744;2023-02-19T05:59:18;4.35;;;2.15;;
10979;SDS011;5543;51.734;8.744;2023-02-19T06:01:48;5.05;;;2.60;;
10979;SDS011;5543;51.734;8.744;2023-02-19T06:04:19;4.00;;;1.90;;
10979;SDS011;5543;51.734;8.744;2023-02-19T06:06:48;16.67;;;2.53;;
10979;SDS011;5543;51.734;8.744;2023-02-19T06:09:17;3.25;;;1.83;;
10979;SDS011;5543;51.734;8.744;2023-02-19T06:11:45;4.00;;;1.95;;
10979;SDS011;5543;51.734;8.744;2023-02-19T06:14:13;2.97;;;1.95;;
10979;SDS011;5543;51.734;8.744;2023-02-19T06:16:41;5.97;;;2.50;;
10979;SDS011;5543;51.734;8.744;2023-02-19T06:19:09;4.90;;;1.95;;
10979;SDS011;5543;51.734;8.744;2023-02-19T06:21:38;2.97;;;2.20;;
10979;SDS011;5543;51.734;8.744;2023-02-19T06:24:07;5.85;;;2.42;;
10979;SDS011;5543;51.734;8.744;2023-02-19T06:26:36;6.28;;;2.53;;
10979;SDS011;5543;51.734;8.744;2023-02-19T06:29:04;5.13;;;2.28;;
10979;SDS011;5543;51.734;8.744;2023-02-19T06:31:32;7.88;;;1.90;;
10979;SDS011;5543;51.734;8.744;2023-02-19T06:34:02;4.65;;;1.70;;
10979;SDS011;5543;51.734;8.744;2023-02-19T06:36:31;2.75;;;1.80;;
10979;SDS011;5543;51.734;8.744;2023-02-19T06:39:01;2.50;;;1.65;;
10979;SDS011;5543;51.734;8.744;2023-02-19T06:41:31;3.30;;;1.52;;
10979;SDS011;5543;51.734;8.744;2023-02-19T06:43:59;3.75;;;1.60;;
10979;SDS011;5543;51.734;8.744;2023-02-19T06:46:27;3.38;;;1.70;;
10979;SDS011;5543;51.734;8.744;2023-02-19T06:48:58;4.80;;;1.50;;
10979;SDS011;5543;51.734;8.744;2023-02-19T06:51:26;3.40;;;1.80;;
10979;SDS011;5543;51.734;8.744;2023-02-19T06:53:54;2.42;;;1.65;;
10979;SDS011;5543;51.734;8.744;2023-02-19T06:56:25;1.45;;;1.02;;
10979;SDS011;5543;51.734;8.744;2023-02-19T06:58:55;3.28;;;1.92;;
10979;SDS011;5543;51.734;8.744;2023-02-19T07:01:26;6.28;;;2.05;;
10979;SDS011;5543;51.734;8.744;2023-02-19T07:03:55;3.25;;;1.77;;
10979;SDS011;5543;51.734;8.744;2023-02-19T07:06:23;3.03;;;2.03;;
10979;SDS011;5543;51.734;8.744;2023-02-19T07:08:53;2.72;;;1.77;;
10979;SDS011;5543;51.734;8.744;2023-02-19T07:11:22;2.25;;;1.33;;
10979;SDS011;5543;51.734;8.744;2023-02-19T07:13:54;6.40;;;3.33;;
10979;SDS011;5543;51.734;8.744;2023-02-19T07:16:22;5.50;;;1.70;;
10979;SDS011;5543;51.734;8.744;2023-02-19T07:18:51;4.10;;;1.85;;
10979;SDS011;5543;51.734;8.744;2023-02-19T07:21:22;2.95;;;1.38;;
10979;SDS011;5543;51.734;8.744;2023-02-19T07:23:50;3.55;;;2.22;;
10979;SDS011;5543;51.734;8.744;2023-02-19T07:26:19;3.47;;;1.75;;
10979;SDS011;5543;51.734;8.744;2023-02-19T07:28:49;5.10;;;2.05;;
10979;SDS011;5543;51.734;8.744;2023-02-19T07:31:19;2.80;;;2.00;;
10979;SDS011;5543;51.734;8.744;2023-02-19T07:33:49;2.42;;;1.65;;
10979;SDS011;5543;51.734;8.744;2023-02-19T07:36:17;2.83;;;1.98;;
10979;SDS011;5543;51.734;8.744;2023-02-19T07:38:46;3.55;;;2.17;;
10979;SDS011;5543;51.734;8.744;2023-02-19T07:41:20;3.05;;;1.80;;
10979;SDS011;5543;51.734;8.744;2023-02-19T07:43:49;2.55;;;1.73;;
10979;SDS011;5543;51.734;8.744;2023-02-19T07:46:17;3.40;;;1.60;;
10979;SDS011;5543;51.734;8.744;2023-02-19T07:48:46;5.80;;;1.70;;
10979;SDS011;5543;51.734;8.744;2023-02-19T07:51:15;2.25;;;2.05;;
10979;SDS011;5543;51.734;8.744;2023-02-19T07:53:44;3.85;;;1.70;;
10979;SDS011;5543;51.734;8.744;2023-02-19T07:56:13;3.50;;;1.85;;
10979;SDS011;5543;51.734;8.744;2023-02-19T07:58:42;1.60;;;1.00;;
10979;SDS011;5543;51.734;8.744;2023-02-19T08:01:12;5.45;;;0.70;;
10979;SDS011;5543;51.734;8.744;2023-02-19T08:03:42;0.22;;;0.22;;
10979;SDS011;5543;51.734;8.744;2023-02-19T08:06:11;0.90;;;0.47;;
10979;SDS011;5543;51.734;8.744;2023-02-19T08:08:39;0.30;;;0.25;;
10979;SDS011;5543;51.734;8.744;2023-02-19T08:11:08;0.10;;;0.10;;
10979;SDS011;5543;51.734;8.744;2023-02-19T08:13:54;18.23;;;7.60;;
10979;SDS011;5543;51.734;8.744;2023-02-19T08:16:22;13.57;;;5.30;;
10979;SDS011;5543;51.734;8.744;2023-02-19T08:19:06;5.28;;;3.05;;
10979;SDS011;5543;51.734;8.744;2023-02-19T08:21:35;0.20;;;0.20;;
10979;SDS011;5543;51.734;8.744;2023-02-19T08:24:04;0.10;;;0.10;;
10979;SDS011;5543;51.734;8.744;2023-02-19T08:26:32;0.00;;;0.00;;
10979;SDS011;5543;51.734;8.744;2023-02-19T08:29:00;0.20;;;0.20;;
10979;SDS011;5543;51.734;8.744;2023-02-19T08:31:29;0.00;;;0.00;;
10979;SDS011;5543;51.734;8.744;2023-02-19T08:33:57;0.20;;;0.20;;
10979;SDS011;5543;51.734;8.744;2023-02-19T08:36:25;0.22;;;0.10;;
10979;SDS011;5543;51.734;8.744;2023-02-19T08:38:55;0.00;;;0.00;;
10979;SDS011;5543;51.734;8.744;2023-02-19T08:41:23;0.20;;;0.13;;
10979;SDS011;5543;51.734;8.744;2023-02-19T08:43:51;0.52;;;0.30;;
10979;SDS011;5543;51.734;8.744;2023-02-19T08:46:19;0.20;;;0.20;;
10979;SDS011;5543;51.734;8.744;2023-02-19T08:48:48;0.22;;;0.22;;
10979;SDS011;5543;51.734;8.744;2023-02-19T08:51:16;3.53;;;0.30;;
10979;SDS011;5543;51.734;8.744;2023-02-19T08:53:44;0.00;;;0.00;;
10979;SDS011;5543;51.734;8.744;2023-02-19T08:56:15;0.00;;;0.00;;
10979;SDS011;5543;51.734;8.744;2023-02-19T08:58:44;0.10;;;0.10;;
10979;SDS011;5543;51.734;8.744;2023-02-19T09:01:14;0.10;;;0.10;;
10979;SDS011;5543;51.734;8.744;2023-02-19T09:03:44;0.20;;;0.17;;
10979;SDS011;5543;51.734;8.744;2023-02-19T09:06:13;0.20;;;0.10;;
10979;SDS011;5543;51.734;8.744;2023-02-19T09:08:43;0.00;;;0.00;;
10979;SDS011;5543;51.734;8.744;2023-02-19T09:11:11;0.00;;;0.00;;
10979;SDS011;5543;51.734;8.744;2023-02-19T09:13:41;0.10;;;0.10;;
10979;SDS011;5543;51.734;8.744;2023-02-19T09:16:10;0.40;;;0.35;;
10979;SDS011;5543;51.734;8.744;2023-02-19T09:18:38;0.30;;;0.13;;
10979;SDS011;5543;51.734;8.744;2023-02-19T09:21:06;0.35;;;0.20;;
10979;SDS011;5543;51.734;8.744;2023-02-19T09:23:35;0.13;;;0.13;;
10979;SDS011;5543;51.734;8.744;2023-02-19T09:26:04;0.10;;;0.10;;
10979;SDS011;5543;51.734;8.744;2023-02-19T09:28:35;0.10;;;0.10;;
10979;SDS011;5543;51.734;8.744;2023-02-19T09:31:09;0.10;;;0.10;;
10979;SDS011;5543;51.734;8.744;2023-02-19T09:33:41;0.03;;;0.03;;
10979;SDS011;5543;51.734;8.744;2023-02-19T09:36:10;0.32;;;0.25;;
10979;SDS011;5543;51.734;8.744;2023-02-19T09:38:38;0.20;;;0.20;;
10979;SDS011;5543;51.734;8.744;2023-02-19T09:41:07;0.10;;;0.10;;
10979;SDS011;5543;51.734;8.744;2023-02-19T09:43:42;0.20;;;0.20;;
10979;SDS011;5543;51.734;8.744;2023-02-19T09:46:16;0.28;;;0.22;;
10979;SDS011;5543;51.734;8.744;2023-02-19T09:48:53;0.73;;;0.43;;
10979;SDS011;5543;51.734;8.744;2023-02-19T09:51:25;0.50;;;0.40;;
10979;SDS011;5543;51.734;8.744;2023-02-19T09:53:56;0.50;;;0.30;;
10979;SDS011;5543;51.734;8.744;2023-02-19T09:56:24;0.80;;;0.20;;
10979;SDS011;5543;51.734;8.744;2023-02-19T09:58:54;2.03;;;0.75;;
10979;SDS011;5543;51.734;8.744;2023-02-19T10:01:31;0.50;;;0.28;;
10979;SDS011;5543;51.734;8.744;2023-02-19T10:04:00;0.65;;;0.52;;
10979;SDS011;5543;51.734;8.744;2023-02-19T10:06:30;0.22;;;0.22;;
10979;SDS011;5543;51.734;8.744;2023-02-19T10:09:09;0.28;;;0.28;;
10979;SDS011;5543;51.734;8.744;2023-02-19T10:11:47;0.10;;;0.10;;
10979;SDS011;5543;51.734;8.744;2023-02-19T10:14:16;0.20;;;0.20;;
10979;SDS011;5543;51.734;8.744;2023-02-19T10:16:52;0.40;;;0.40;;
10979;SDS011;5543;51.734;8.744;2023-02-19T10:19:20;0.30;;;0.30;;
10979;SDS011;5543;51.734;8.744;2023-02-19T10:21:48;0.43;;;0.40;;
10979;SDS011;5543;51.734;8.744;2023-02-19T10:24:18;0.35;;;0.25;;
10979;SDS011;5543;51.734;8.744;2023-02-19T10:26:51;0.20;;;0.17;;
10979;SDS011;5543;51.734;8.744;2023-02-19T10:29:19;0.30;;;0.30;;
10979;SDS011;5543;51.734;8.744;2023-02-19T10:32:00;0.28;;;0.28;;
10979;SDS011;5543;51.734;8.744;2023-02-19T10:34:39;0.20;;;0.20;;
10979;SDS011;5543;51.734;8.744;2023-02-19T10:37:09;0.10;;;0.10;;
10979;SDS011;5543;51.734;8.744;2023-02-19T10:39:41;0.35;;;0.20;;
10979;SDS011;5543;51.734;8.744;2023-02-19T10:42:17;0.90;;;0.50;;
10979;SDS011;5543;51.734;8.744;2023-02-19T10:44:48;0.35;;;0.35;;
10979;SDS011;5543;51.734;8.744;2023-02-19T10:47:22;0.40;;;0.30;;
10979;SDS011;5543;51.734;8.744;2023-02-19T10:49:52;0.32;;;0.32;;
10979;SDS011;5543;51.734;8.744;2023-02-19T10:52:25;0.00;;;0.00;;
10979;SDS011;5543;51.734;8.744;2023-02-19T10:54:55;0.25;;;0.25;;
10979;SDS011;5543;51.734;8.744;2023-02-19T10:57:26;0.22;;;0.22;;
10979;SDS011;5543;51.734;8.744;2023-02-19T10:59:58;0.30;;;0.20;;
10979;SDS011;5543;51.734;8.744;2023-02-19T11:02:30;0.65;;;0.30;;
10979;SDS011;5543;51.734;8.744;2023-02-19T11:05:04;0.30;;;0.30;;
10979;SDS011;5543;51.734;8.744;2023-02-19T11:07:43;0.47;;;0.32;;
10979;SDS011;5543;51.734;8.744;2023-02-19T11:10:26;0.30;;;0.30;;
10979;SDS011;5543;51.734;8.744;2023-02-19T11:12:56;0.60;;;0.55;;
10979;SDS011;5543;51.734;8.744;2023-02-19T11:15:27;0.80;;;0.40;;
10979;SDS011;5543;51.734;8.744;2023-02-19T11:17:59;0.60;;;0.50;;
10979;SDS011;5543;51.734;8.744;2023-02-19T11:20:31;0.32;;;0.22;;
10979;SDS011;5543;51.734;8.744;2023-02-19T11:23:00;0.50;;;0.50;;
10979;SDS011;5543;51.734;8.744;2023-02-19T11:25:43;0.20;;;0.15;;
10979;SDS011;5543;51.734;8.744;2023-02-19T11:28:19;0.80;;;0.65;;
10979;SDS011;5543;51.734;8.744;2023-02-19T11:33:54;1.02;;;0.82;;
10979;SDS011;5543;51.734;8.744;2023-02-19T11:36:30;0.50;;;0.50;;
10979;SDS011;5543;51.734;8.744;2023-02-19T11:39:04;0.35;;;0.35;;
10979;SDS011;5543;51.734;8.744;2023-02-19T11:41:52;0.28;;;0.28;;
10979;SDS011;5543;51.734;8.744;2023-02-19T11:44:35;0.45;;;0.45;;
10979;SDS011;5543;51.734;8.744;2023-02-19T11:47:20;0.65;;;0.65;;
10979;SDS011;5543;51.734;8.744;2023-02-19T11:50:10;0.30;;;0.30;;
10979;SDS011;5543;51.734;8.744;2023-02-19T11:52:50;0.30;;;0.30;;
10979;SDS011;5543;51.734;8.744;2023-02-19T11:55:33;0.75;;;0.50;;
10979;SDS011;5543;51.734;8.744;2023-02-19T11:58:20;0.50;;;0.43;;
10979;SDS011;5543;51.734;8.744;2023-02-19T12:01:04;0.98;;;0.50;;
10979;SDS011;5543;51.734;8.744;2023-02-19T12:03:45;1.30;;;0.60;;
10979;SDS011;5543;51.734;8.744;2023-02-19T12:06:29;0.47;;;0.35;;
10979;SDS011;5543;51.734;8.744;2023-02-19T12:09:10;0.90;;;0.50;;
10979;SDS011;5543;51.734;8.744;2023-02-19T12:11:55;0.55;;;0.55;;
10979;SDS011;5543;51.734;8.744;2023-02-19T12:14:47;0.40;;;0.40;;
10979;SDS011;5543;51.734;8.744;2023-02-19T12:17:39;0.22;;;0.22;;
10979;SDS011;5543;51.734;8.744;2023-02-19T12:20:30;0.82;;;0.50;;
10979;SDS011;5543;51.734;8.744;2023-02-19T12:23:12;0.30;;;0.30;;
10979;SDS011;5543;51.734;8.744;2023-02-19T12:26:04;0.40;;;0.40;;
10979;SDS011;5543;51.734;8.744;2023-02-19T12:28:57;0.30;;;0.30;;
10979;SDS011;5543;51.734;8.744;2023-02-19T12:31:41;0.30;;;0.30;;
10979;SDS011;5543;51.734;8.744;2023-02-19T12:34:24;0.20;;;0.20;;
10979;SDS011;5543;51.734;8.744;2023-02-19T12:37:03;0.35;;;0.35;;
10979;SDS011;5543;51.734;8.744;2023-02-19T12:39:44;0.10;;;0.10;;
10979;SDS011;5543;51.734;8.744;2023-02-19T12:42:23;0.20;;;0.20;;
10979;SDS011;5543;51.734;8.744;2023-02-19T12:45:05;0.43;;;0.40;;
10979;SDS011;5543;51.734;8.744;2023-02-19T12:47:41;0.52;;;0.28;;
10979;SDS011;5543;51.734;8.744;2023-02-19T12:50:13;0.38;;;0.38;;
10979;SDS011;5543;51.734;8.744;2023-02-19T12:52:47;0.40;;;0.35;;
10979;SDS011;5543;51.734;8.744;2023-02-19T12:55:22;0.43;;;0.43;;
10979;SDS011;5543;51.734;8.744;2023-02-19T12:57:54;0.10;;;0.10;;
10979;SDS011;5543;51.734;8.744;2023-02-19T13:00:28;0.22;;;0.22;;
10979;SDS011;5543;51.734;8.744;2023-02-19T13:03:01;0.47;;;0.47;;
10979;SDS011;5543;51.734;8.744;2023-02-19T13:05:39;0.60;;;0.57;;
10979;SDS011;5543;51.734;8.744;2023-02-19T13:08:12;0.30;;;0.15;;
10979;SDS011;5543;51.734;8.744;2023-02-19T13:10:48;0.28;;;0.28;;
10979;SDS011;5543;51.734;8.744;2023-02-19T13:13:22;0.50;;;0.47;;
10979;SDS011;5543;51.734;8.744;2023-02-19T13:15:57;0.52;;;0.50;;
10979;SDS011;5543;51.734;8.744;2023-02-19T13:18:30;0.55;;;0.35;;
10979;SDS011;5543;51.734;8.744;2023-02-19T13:21:03;1.23;;;0.73;;
10979;SDS011;5543;51.734;8.744;2023-02-19T13:23:33;0.40;;;0.40;;
10979;SDS011;5543;51.734;8.744;2023-02-19T13:29:28;0.55;;;0.35;;
10979;SDS011;5543;51.734;8.744;2023-02-19T13:32:15;0.60;;;0.30;;
10979;SDS011;5543;51.734;8.744;2023-02-19T13:34:59;0.30;;;0.30;;
10979;SDS011;5543;51.734;8.744;2023-02-19T13:37:38;0.85;;;0.43;;
10979;SDS011;5543;51.734;8.744;2023-02-19T13:40:16;0.85;;;0.70;;
10979;SDS011;5543;51.734;8.744;2023-02-19T13:42:52;0.40;;;0.40;;
10979;SDS011;5543;51.734;8.744;2023-02-19T13:45:23;0.38;;;0.38;;
10979;SDS011;5543;51.734;8.744;2023-02-19T13:47:58;0.32;;;0.32;;
10979;SDS011;5543;51.734;8.744;2023-02-19T13:50:30;0.38;;;0.38;;
10979;SDS011;5543;51.734;8.744;2023-02-19T13:53:00;0.52;;;0.50;;
10979;SDS011;5543;51.734;8.744;2023-02-19T13:55:49;2.05;;;1.17;;
10979;SDS011;5543;51.734;8.744;2023-02-19T13:58:39;0.60;;;0.60;;
10979;SDS011;5543;51.734;8.744;2023-02-19T14:04:22;0.68;;;0.68;;
10979;SDS011;5543;51.734;8.744;2023-02-19T14:09:59;0.57;;;0.57;;
10979;SDS011;5543;51.734;8.744;2023-02-19T14:12:31;0.70;;;0.65;;
10979;SDS011;5543;51.734;8.744;2023-02-19T14:21:15;0.60;;;0.60;;
10979;SDS011;5543;51.734;8.744;2023-02-19T14:23:49;0.43;;;0.40;;
10979;SDS011;5543;51.734;8.744;2023-02-19T14:26:20;0.65;;;0.65;;
10979;SDS011;5543;51.734;8.744;2023-02-19T14:28:48;0.77;;;0.77;;
10979;SDS011;5543;51.734;8.744;2023-02-19T14:31:27;1.90;;;0.63;;
10979;SDS011;5543;51.734;8.744;2023-02-19T14:33:57;0.73;;;0.68;;
10979;SDS011;5543;51.734;8.744;2023-02-19T14:36:30;1.45;;;0.63;;
10979;SDS011;5543;51.734;8.744;2023-02-19T14:39:02;0.70;;;0.50;;
10979;SDS011;5543;51.734;8.744;2023-02-19T14:41:35;0.60;;;0.60;;
10979;SDS011;5543;51.734;8.744;2023-02-19T14:44:05;0.65;;;0.60;;
10979;SDS011;5543;51.734;8.744;2023-02-19T14:46:43;0.50;;;0.40;;
10979;SDS011;5543;51.734;8.744;2023-02-19T14:49:18;0.95;;;0.85;;
10979;SDS011;5543;51.734;8.744;2023-02-19T14:51:52;1.02;;;0.90;;
10979;SDS011;5543;51.734;8.744;2023-02-19T14:54:34;1.08;;;0.65;;
10979;SDS011;5543;51.734;8.744;2023-02-19T14:57:10;1.13;;;0.63;;
10979;SDS011;5543;51.734;8.744;2023-02-19T14:59:53;0.55;;;0.55;;
10979;SDS011;5543;51.734;8.744;2023-02-19T15:02:25;0.55;;;0.55;;
10979;SDS011;5543;51.734;8.744;2023-02-19T15:04:54;0.55;;;0.55;;
10979;SDS011;5543;51.734;8.744;2023-02-19T15:07:23;1.33;;;0.55;;
10979;SDS011;5543;51.734;8.744;2023-02-19T15:09:58;0.63;;;0.63;;
10979;SDS011;5543;51.734;8.744;2023-02-19T15:12:32;1.08;;;0.88;;
10979;SDS011;5543;51.734;8.744;2023-02-19T15:15:05;1.45;;;0.80;;
10979;SDS011;5543;51.734;8.744;2023-02-19T15:17:36;0.60;;;0.55;;
10979;SDS011;5543;51.734;8.744;2023-02-19T15:20:08;1.77;;;0.65;;
10979;SDS011;5543;51.734;8.744;2023-02-19T15:22:42;0.60;;;0.52;;
10979;SDS011;5543;51.734;8.744;2023-02-19T15:25:14;0.60;;;0.60;;
10979;SDS011;5543;51.734;8.744;2023-02-19T15:27:44;1.23;;;0.90;;
10979;SDS011;5543;51.734;8.744;2023-02-19T15:30:17;1.20;;;1.10;;
10979;SDS011;5543;51.734;8.744;2023-02-19T15:32:52;1.10;;;1.00;;
10979;SDS011;5543;51.734;8.744;2023-02-19T15:35:21;0.90;;;0.82;;
10979;SDS011;5543;51.734;8.744;2023-02-19T15:37:50;0.88;;;0.77;;
10979;SDS011;5543;51.734;8.744;2023-02-19T15:40:23;1.60;;;1.20;;
10979;SDS011;5543;51.734;8.744;2023-02-19T15:42:55;1.48;;;1.15;;
10979;SDS011;5543;51.734;8.744;2023-02-19T15:45:26;1.45;;;1.02;;
10979;SDS011;5543;51.734;8.744;2023-02-19T15:47:59;1.38;;;0.85;;
10979;SDS011;5543;51.734;8.744;2023-02-19T15:50:33;1.02;;;0.80;;
10979;SDS011;5543;51.734;8.744;2023-02-19T15:53:06;0.73;;;0.50;;
10979;SDS011;5543;51.734;8.744;2023-02-19T15:55:39;1.30;;;0.85;;